createdAt,value
2017-09-17T00:00:44.292Z,66.30
2017-09-17T00:03:11.176Z,66.10
2017-09-17T00:05:37.339Z,66.10
2017-09-17T00:08:04.249Z,65.60
2017-09-17T00:10:30.425Z,65.60
2017-09-17T00:12:56.599Z,65.60
2017-09-17T00:15:23.531Z,65.20
2017-09-17T00:17:49.822Z,65.20
2017-09-17T00:20:16.807Z,65.70
2017-09-17T00:22:42.947Z,65.70
2017-09-17T00:25:09.140Z,65.60
2017-09-17T00:27:35.291Z,65.50
2017-09-17T00:30:02.198Z,64.70
2017-09-17T00:32:28.359Z,65.40
2017-09-17T00:34:54.519Z,65.10
2017-09-17T00:37:20.717Z,65.10
2017-09-17T00:39:46.901Z,65.20
2017-09-17T00:42:13.108Z,65.40
2017-09-17T00:44:39.268Z,65.20
2017-09-17T00:47:05.444Z,64.70
2017-09-17T00:49:31.590Z,64.60
2017-09-17T00:51:57.732Z,65.00
2017-09-17T00:54:24.671Z,64.90
2017-09-17T00:56:51.587Z,64.70
2017-09-17T00:59:17.823Z,64.70
2017-09-17T01:01:43.971Z,64.10
2017-09-17T01:04:10.149Z,65.10
2017-09-17T01:06:36.335Z,64.80
2017-09-17T01:09:02.525Z,64.70
2017-09-17T01:11:28.679Z,64.30
2017-09-17T01:13:55.615Z,64.50
2017-09-17T01:16:21.790Z,64.40
2017-09-17T01:18:47.966Z,63.50
2017-09-17T01:21:14.111Z,64.10
2017-09-17T01:23:40.287Z,64.40
2017-09-17T01:26:06.448Z,63.80
2017-09-17T01:28:32.655Z,64.10
2017-09-17T01:30:58.819Z,63.70
2017-09-17T01:33:25.080Z,63.60
2017-09-17T01:35:51.275Z,63.80
2017-09-17T01:38:17.423Z,63.70
2017-09-17T01:40:44.308Z,63.90
2017-09-17T01:43:10.451Z,63.90
2017-09-17T01:45:36.663Z,63.40
2017-09-17T01:48:03.564Z,63.60
2017-09-17T01:50:29.720Z,63.30
2017-09-17T01:52:55.860Z,63.80
2017-09-17T01:55:22.004Z,63.50
2017-09-17T01:57:48.171Z,63.40
2017-09-17T02:00:14.407Z,63.10
2017-09-17T02:02:40.548Z,63.30
2017-09-17T02:05:06.772Z,64.10
2017-09-17T02:07:32.893Z,64.60
2017-09-17T02:09:59.795Z,63.50
2017-09-17T02:12:25.955Z,64.30
2017-09-17T02:14:52.139Z,64.70
2017-09-17T02:17:18.279Z,64.70
2017-09-17T02:19:44.432Z,64.90
2017-09-17T02:22:10.564Z,64.90
2017-09-17T02:24:36.719Z,65.00
2017-09-17T02:27:02.869Z,64.60
2017-09-17T02:29:29.021Z,65.20
2017-09-17T02:31:55.921Z,65.60
2017-09-17T02:34:22.068Z,65.60
2017-09-17T02:36:48.250Z,66.20
2017-09-17T02:39:14.528Z,66.20
2017-09-17T02:41:40.686Z,66.60
2017-09-17T02:44:06.831Z,65.90
2017-09-17T02:46:33.037Z,66.30
2017-09-17T02:48:59.212Z,65.90
2017-09-17T02:51:25.461Z,65.50
2017-09-17T02:53:52.375Z,66.00
2017-09-17T02:56:19.320Z,66.10
2017-09-17T02:58:45.467Z,66.00
2017-09-17T03:01:11.613Z,66.50
2017-09-17T03:03:37.803Z,66.80
2017-09-17T03:06:03.951Z,66.80
2017-09-17T03:08:30.873Z,67.30
2017-09-17T03:10:57.047Z,66.70
2017-09-17T03:13:23.238Z,66.50
2017-09-17T03:15:49.400Z,66.30
2017-09-17T03:18:15.545Z,66.50
2017-09-17T03:20:41.708Z,67.10
2017-09-17T03:23:07.868Z,66.80
2017-09-17T03:25:34.767Z,66.80
2017-09-17T03:28:00.927Z,66.80
2017-09-17T03:30:27.157Z,66.80
2017-09-17T03:32:53.319Z,67.10
2017-09-17T03:35:20.231Z,66.90
2017-09-17T03:37:46.399Z,66.90
2017-09-17T03:40:12.596Z,67.20
2017-09-17T03:42:38.792Z,67.00
2017-09-17T03:45:05.694Z,67.10
2017-09-17T03:47:31.875Z,67.10
2017-09-17T03:49:58.034Z,67.20
2017-09-17T03:52:24.939Z,67.30
2017-09-17T03:54:51.090Z,67.30
2017-09-17T03:57:18.019Z,67.30
2017-09-17T03:59:44.151Z,67.40
2017-09-17T04:02:10.331Z,67.40
2017-09-17T04:04:37.279Z,67.70
2017-09-17T04:07:03.458Z,67.50
2017-09-17T04:09:29.657Z,68.30
2017-09-17T04:11:55.828Z,68.10
2017-09-17T04:14:21.993Z,67.60
2017-09-17T04:16:48.139Z,68.10
2017-09-17T04:19:15.048Z,68.20
2017-09-17T04:21:41.228Z,68.20
2017-09-17T04:24:07.399Z,68.10
2017-09-17T04:26:33.593Z,67.90
2017-09-17T04:29:00.497Z,67.60
2017-09-17T04:31:26.634Z,67.40
2017-09-17T04:33:53.719Z,68.10
2017-09-17T04:36:19.867Z,68.10
2017-09-17T04:38:46.053Z,67.80
2017-09-17T04:41:12.190Z,67.90
2017-09-17T04:43:38.378Z,68.00
2017-09-17T04:46:04.535Z,68.10
2017-09-17T04:48:31.435Z,67.90
2017-09-17T04:50:57.594Z,67.90
2017-09-17T04:53:23.728Z,67.90
2017-09-17T04:55:49.941Z,67.70
2017-09-17T04:58:16.135Z,67.60
2017-09-17T05:00:42.564Z,67.60
2017-09-17T05:03:08.749Z,67.90
2017-09-17T05:05:35.913Z,67.50
2017-09-17T05:08:02.079Z,67.50
2017-09-17T05:10:28.237Z,67.80
2017-09-17T05:12:54.504Z,68.20
2017-09-17T05:15:21.388Z,68.30
2017-09-17T05:17:47.561Z,68.30
2017-09-17T05:20:14.451Z,68.10
2017-09-17T05:22:40.603Z,68.10
2017-09-17T05:25:06.747Z,68.40
2017-09-17T05:27:32.955Z,68.40
2017-09-17T05:29:59.117Z,68.50
2017-09-17T05:32:25.297Z,68.70
2017-09-17T05:34:51.431Z,68.60
2017-09-17T05:37:17.596Z,68.40
2017-09-17T05:39:43.742Z,68.60
2017-09-17T05:42:10.125Z,68.80
2017-09-17T05:44:36.311Z,69.00
2017-09-17T05:47:03.515Z,68.50
2017-09-17T05:49:29.720Z,68.30
2017-09-17T05:51:55.880Z,68.20
2017-09-17T05:54:22.787Z,68.90
2017-09-17T05:56:48.951Z,68.90
2017-09-17T05:59:15.178Z,69.90
2017-09-17T06:01:41.325Z,70.40
2017-09-17T06:04:07.514Z,69.10
2017-09-17T06:06:33.685Z,67.90
2017-09-17T06:08:59.827Z,66.80
2017-09-17T06:11:25.998Z,66.20
2017-09-17T06:13:52.163Z,66.00
2017-09-17T06:16:18.358Z,65.90
2017-09-17T06:18:44.515Z,65.80
2017-09-17T06:21:11.443Z,62.80
2017-09-17T06:23:37.575Z,62.90
2017-09-17T06:26:03.752Z,64.50
2017-09-17T06:28:29.892Z,64.00
2017-09-17T06:30:56.833Z,65.10
2017-09-17T06:33:22.976Z,65.10
2017-09-17T06:35:49.135Z,65.10
2017-09-17T06:38:16.073Z,66.00
2017-09-17T06:40:43.006Z,66.30
2017-09-17T06:43:09.931Z,67.00
2017-09-17T06:45:36.828Z,67.10
2017-09-17T06:48:02.997Z,66.90
2017-09-17T06:50:29.175Z,66.80
2017-09-17T06:52:55.351Z,66.80
2017-09-17T06:55:21.759Z,66.60
2017-09-17T06:57:47.944Z,66.70
2017-09-17T07:00:14.111Z,67.00
2017-09-17T07:02:40.286Z,67.00
2017-09-17T07:05:06.438Z,65.70
2017-09-17T07:07:32.728Z,65.70
2017-09-17T07:09:58.909Z,65.60
2017-09-17T07:12:25.092Z,65.40
2017-09-17T07:14:52.006Z,65.60
2017-09-17T07:17:18.171Z,65.60
2017-09-17T07:19:44.325Z,65.30
2017-09-17T07:22:10.551Z,66.00
2017-09-17T07:24:37.495Z,66.60
2017-09-17T07:27:03.640Z,66.00
2017-09-17T07:29:29.870Z,65.10
2017-09-17T07:31:56.748Z,65.90
2017-09-17T07:34:22.950Z,65.10
2017-09-17T07:36:49.113Z,65.00
2017-09-17T07:39:15.299Z,65.10
2017-09-17T07:41:41.912Z,65.50
2017-09-17T07:44:08.106Z,65.30
2017-09-17T07:46:34.306Z,66.20
2017-09-17T07:49:00.815Z,66.00
2017-09-17T07:51:27.135Z,66.00
2017-09-17T07:53:53.323Z,65.70
2017-09-17T07:56:19.501Z,66.90
2017-09-17T07:58:45.678Z,66.30
2017-09-17T08:01:11.852Z,66.10
2017-09-17T08:03:38.011Z,66.50
2017-09-17T08:06:04.166Z,66.10
2017-09-17T08:08:30.336Z,66.40
2017-09-17T08:10:56.531Z,65.80
2017-09-17T08:13:22.691Z,66.00
2017-09-17T08:15:49.725Z,66.00
2017-09-17T08:18:15.882Z,66.10
2017-09-17T08:20:42.304Z,66.50
2017-09-17T08:23:08.434Z,65.10
2017-09-17T08:25:34.575Z,65.90
2017-09-17T08:28:00.887Z,64.90
2017-09-17T08:30:27.781Z,64.60
2017-09-17T08:32:53.934Z,64.50
2017-09-17T08:35:20.835Z,63.60
2017-09-17T08:37:47.012Z,63.70
2017-09-17T08:40:13.155Z,63.60
2017-09-17T08:42:39.303Z,64.20
2017-09-17T08:45:05.487Z,63.80
2017-09-17T08:47:31.639Z,63.80
2017-09-17T08:49:57.827Z,64.50
2017-09-17T08:52:24.752Z,63.90
2017-09-17T08:54:51.721Z,63.30
2017-09-17T08:57:17.884Z,63.30
2017-09-17T08:59:44.859Z,63.80
2017-09-17T09:02:11.064Z,63.80
2017-09-17T09:04:37.237Z,63.40
2017-09-17T09:07:04.136Z,62.10
2017-09-17T09:09:30.275Z,62.20
2017-09-17T09:11:56.411Z,62.40
2017-09-17T09:14:23.360Z,62.60
2017-09-17T09:16:49.524Z,61.80
2017-09-17T09:19:15.701Z,61.90
2017-09-17T09:21:41.882Z,60.90
2017-09-17T09:24:08.146Z,60.90
2017-09-17T09:26:34.308Z,60.30
2017-09-17T09:29:00.479Z,60.70
2017-09-17T09:31:26.631Z,60.30
2017-09-17T09:33:53.724Z,59.20
2017-09-17T09:36:19.919Z,59.20
2017-09-17T09:38:46.100Z,58.20
2017-09-17T09:41:12.284Z,58.60
2017-09-17T09:43:39.194Z,58.40
2017-09-17T09:46:05.352Z,58.40
2017-09-17T09:48:31.545Z,58.60
2017-09-17T09:50:58.439Z,58.60
2017-09-17T09:53:24.683Z,58.60
2017-09-17T09:55:51.601Z,58.00
2017-09-17T09:58:17.784Z,57.40
2017-09-17T10:00:43.935Z,57.50
2017-09-17T10:03:10.891Z,57.10
2017-09-17T10:05:37.098Z,57.00
2017-09-17T10:08:03.260Z,56.50
2017-09-17T10:10:29.412Z,56.40
2017-09-17T10:12:56.340Z,55.50
2017-09-17T10:15:22.481Z,55.50
2017-09-17T10:17:48.633Z,55.10
2017-09-17T10:20:14.803Z,55.10
2017-09-17T10:22:40.937Z,55.60
2017-09-17T10:25:07.083Z,53.90
2017-09-17T10:27:33.244Z,54.20
2017-09-17T10:29:59.387Z,53.70
2017-09-17T10:32:25.552Z,53.80
2017-09-17T10:34:51.761Z,53.40
2017-09-17T10:37:17.907Z,53.40
2017-09-17T10:39:44.063Z,52.00
2017-09-17T10:42:10.230Z,52.50
2017-09-17T10:44:36.393Z,51.50
2017-09-17T10:47:02.553Z,51.90
2017-09-17T10:49:28.742Z,52.50
2017-09-17T10:51:54.939Z,52.10
2017-09-17T10:54:21.124Z,51.40
2017-09-17T10:56:47.291Z,51.40
2017-09-17T10:59:13.468Z,51.70
2017-09-17T11:01:39.620Z,51.60
2017-09-17T11:04:05.768Z,50.80
2017-09-17T11:06:31.980Z,49.60
2017-09-17T11:08:58.128Z,50.00
2017-09-17T11:11:24.300Z,50.00
2017-09-17T11:13:50.480Z,47.90
2017-09-17T11:16:16.669Z,49.10
2017-09-17T11:18:42.794Z,49.00
2017-09-17T11:21:08.939Z,49.10
2017-09-17T11:23:35.073Z,47.90
2017-09-17T11:26:01.226Z,48.20
2017-09-17T11:28:27.403Z,48.80
2017-09-17T11:30:53.560Z,48.20
2017-09-17T11:33:19.743Z,47.90
2017-09-17T11:35:46.640Z,45.70
2017-09-17T11:38:12.831Z,45.70
2017-09-17T11:40:38.998Z,45.50
2017-09-17T11:43:05.931Z,45.40
2017-09-17T11:45:32.085Z,45.40
2017-09-17T11:47:58.273Z,42.30
2017-09-17T11:50:24.463Z,42.90
2017-09-17T11:52:51.341Z,42.90
2017-09-17T11:55:17.503Z,42.90
2017-09-17T11:57:44.409Z,39.50
2017-09-17T12:00:10.524Z,39.50
2017-09-17T12:02:36.707Z,39.50
2017-09-17T12:05:02.883Z,39.70
2017-09-17T12:07:29.033Z,39.20
2017-09-17T12:09:55.186Z,38.20
2017-09-17T12:12:21.344Z,38.50
2017-09-17T12:14:47.550Z,36.40
2017-09-17T12:17:13.739Z,36.20
2017-09-17T12:19:39.902Z,34.80
2017-09-17T12:22:06.051Z,35.90
2017-09-17T12:24:32.223Z,35.10
2017-09-17T12:26:58.399Z,34.60
2017-09-17T12:29:24.588Z,33.10
2017-09-17T12:31:50.747Z,33.50
2017-09-17T12:34:16.913Z,33.00
2017-09-17T12:36:43.060Z,32.80
2017-09-17T12:39:09.254Z,31.10
2017-09-17T12:41:35.415Z,33.30
2017-09-17T12:44:01.616Z,32.00
2017-09-17T12:46:27.738Z,31.30
2017-09-17T12:48:53.907Z,31.40
2017-09-17T12:51:20.100Z,29.70
2017-09-17T12:53:46.283Z,30.80
2017-09-17T12:56:12.411Z,30.00
2017-09-17T12:58:39.273Z,31.30
2017-09-17T13:01:05.459Z,31.20
2017-09-17T13:03:32.357Z,29.90
2017-09-17T13:05:58.621Z,29.90
2017-09-17T13:08:24.767Z,30.20
2017-09-17T13:10:50.965Z,32.20
2017-09-17T13:13:17.119Z,33.30
2017-09-17T13:15:43.282Z,33.80
2017-09-17T13:18:09.512Z,32.10
2017-09-17T13:20:35.674Z,33.60
2017-09-17T13:23:01.825Z,34.30
2017-09-17T13:25:28.742Z,34.80
2017-09-17T13:27:54.896Z,34.80
2017-09-17T13:30:21.063Z,34.00
2017-09-17T13:32:47.260Z,33.80
2017-09-17T13:35:13.407Z,33.40
2017-09-17T13:37:39.547Z,34.40
2017-09-17T13:40:05.720Z,34.50
2017-09-17T13:42:31.914Z,35.70
2017-09-17T13:44:58.091Z,36.20
2017-09-17T13:47:24.271Z,33.70
2017-09-17T13:49:50.488Z,32.80
2017-09-17T13:52:16.680Z,33.60
2017-09-17T13:54:42.845Z,32.90
2017-09-17T13:57:09.042Z,34.20
2017-09-17T13:59:39.031Z,34.80
2017-09-17T14:02:11.247Z,33.90
2017-09-17T14:04:38.672Z,32.60
2017-09-17T14:07:20.767Z,33.90
2017-09-17T14:09:46.941Z,33.40
2017-09-17T14:12:13.131Z,32.50
2017-09-17T14:14:39.350Z,33.60
2017-09-17T14:17:05.506Z,34.10
2017-09-17T14:19:31.660Z,33.90
2017-09-17T14:21:57.848Z,34.60
2017-09-17T14:24:23.989Z,35.00
2017-09-17T14:26:50.167Z,35.20
2017-09-17T14:29:16.295Z,35.70
2017-09-17T14:31:42.450Z,34.40
2017-09-17T14:34:08.599Z,34.40
2017-09-17T14:36:34.759Z,34.00
2017-09-17T14:39:00.904Z,33.90
2017-09-17T14:41:27.061Z,33.90
2017-09-17T14:43:53.957Z,33.60
2017-09-17T14:46:20.123Z,33.50
2017-09-17T14:48:46.328Z,34.30
2017-09-17T14:51:12.466Z,34.40
2017-09-17T14:53:38.654Z,33.90
2017-09-17T14:56:04.822Z,35.40
2017-09-17T14:58:31.012Z,34.50
2017-09-17T15:00:57.170Z,34.90
2017-09-17T15:03:23.372Z,34.90
2017-09-17T15:05:49.506Z,35.20
2017-09-17T15:08:15.671Z,37.00
2017-09-17T15:10:41.798Z,38.60
2017-09-17T15:13:07.966Z,35.60
2017-09-17T15:15:34.658Z,35.00
2017-09-17T15:18:00.829Z,34.80
2017-09-17T15:20:27.066Z,35.10
2017-09-17T15:22:53.256Z,35.40
2017-09-17T15:25:19.550Z,35.90
2017-09-17T15:27:45.694Z,36.10
2017-09-17T15:30:11.831Z,36.70
2017-09-17T15:32:38.052Z,38.30
2017-09-17T15:35:04.170Z,37.30
2017-09-17T15:37:30.390Z,37.10
2017-09-17T15:39:56.507Z,39.30
2017-09-17T15:42:22.636Z,42.10
2017-09-17T15:44:48.782Z,42.50
2017-09-17T15:47:14.919Z,42.50
2017-09-17T15:49:41.086Z,41.40
2017-09-17T15:52:07.232Z,41.70
2017-09-17T15:54:33.356Z,41.70
2017-09-17T15:57:00.306Z,41.80
2017-09-17T15:59:26.442Z,41.90
2017-09-17T16:01:52.560Z,42.00
2017-09-17T16:04:19.536Z,42.60
2017-09-17T16:06:45.686Z,42.50
2017-09-17T16:09:11.879Z,42.10
2017-09-17T16:11:38.018Z,41.90
2017-09-17T16:14:04.910Z,44.60
2017-09-17T16:16:31.071Z,44.50
2017-09-17T16:18:57.957Z,44.00
2017-09-17T16:21:24.139Z,44.00
2017-09-17T16:23:50.283Z,43.90
2017-09-17T16:26:16.411Z,43.90
2017-09-17T16:28:42.559Z,44.10
2017-09-17T16:31:08.706Z,44.70
2017-09-17T16:33:34.847Z,45.10
2017-09-17T16:36:01.410Z,45.90
2017-09-17T16:38:27.548Z,46.90
2017-09-17T16:40:53.703Z,46.90
2017-09-17T16:43:19.872Z,45.40
2017-09-17T16:45:46.043Z,46.10
2017-09-17T16:48:13.135Z,46.80
2017-09-17T16:50:39.300Z,46.80
2017-09-17T16:53:05.460Z,46.80
2017-09-17T16:55:31.616Z,46.80
2017-09-17T16:57:58.552Z,49.90
2017-09-17T17:00:25.708Z,49.90
2017-09-17T17:02:51.995Z,50.10
2017-09-17T17:05:18.126Z,50.10
2017-09-17T17:07:44.314Z,50.70
2017-09-17T17:10:11.173Z,49.80
2017-09-17T17:12:37.318Z,49.80
2017-09-17T17:15:03.463Z,49.40
2017-09-17T17:17:29.595Z,50.50
2017-09-17T17:19:55.775Z,50.90
2017-09-17T17:22:21.959Z,51.40
2017-09-17T17:24:48.352Z,51.40
2017-09-17T17:27:15.243Z,50.90
2017-09-17T17:29:41.442Z,50.90
2017-09-17T17:32:07.635Z,51.80
2017-09-17T17:34:33.804Z,52.00
2017-09-17T17:36:59.970Z,53.00
2017-09-17T17:39:26.132Z,54.00
2017-09-17T17:41:52.263Z,54.20
2017-09-17T17:44:18.584Z,54.20
2017-09-17T17:46:44.733Z,53.40
2017-09-17T17:49:10.864Z,54.50
2017-09-17T17:51:37.019Z,54.70
2017-09-17T17:54:14.403Z,55.30
2017-09-17T17:56:40.708Z,55.20
2017-09-17T17:59:06.862Z,55.00
2017-09-17T18:01:34.121Z,55.10
2017-09-17T18:04:00.324Z,55.90
2017-09-17T18:06:26.525Z,57.20
2017-09-17T18:08:52.671Z,57.90
2017-09-17T18:11:18.869Z,58.10
2017-09-17T18:13:45.209Z,58.30
2017-09-17T18:16:11.386Z,57.60
2017-09-17T18:18:37.514Z,57.40
2017-09-17T18:21:03.823Z,57.10
2017-09-17T18:23:29.987Z,57.20
2017-09-17T18:25:56.116Z,57.50
2017-09-17T18:28:22.296Z,57.80
2017-09-17T18:30:48.439Z,58.30
2017-09-17T18:33:14.594Z,58.20
2017-09-17T18:35:40.764Z,58.20
2017-09-17T18:38:06.895Z,58.00
2017-09-17T18:40:33.039Z,58.00
2017-09-17T18:43:00.191Z,58.20
2017-09-17T18:45:26.340Z,58.30
2017-09-17T18:47:52.640Z,59.60
2017-09-17T18:50:24.847Z,59.30
2017-09-17T18:52:51.004Z,59.00
2017-09-17T18:55:17.987Z,60.00
2017-09-17T18:57:44.144Z,60.10
2017-09-17T19:00:10.532Z,61.50
2017-09-17T19:02:36.697Z,61.10
2017-09-17T19:05:02.864Z,61.00
2017-09-17T19:07:29.750Z,60.90
2017-09-17T19:09:55.941Z,60.80
2017-09-17T19:12:22.090Z,60.20
2017-09-17T19:14:48.303Z,59.80
2017-09-17T19:17:14.484Z,59.60
2017-09-17T19:19:40.630Z,59.60
2017-09-17T19:22:06.953Z,59.90
2017-09-17T19:24:33.138Z,59.50
2017-09-17T19:26:59.299Z,59.40
2017-09-17T19:29:25.607Z,60.70
2017-09-17T19:31:51.777Z,62.10
2017-09-17T19:34:17.983Z,62.50
2017-09-17T19:36:44.543Z,61.90
2017-09-17T19:39:11.443Z,61.00
2017-09-17T19:41:37.616Z,60.90
2017-09-17T19:44:03.764Z,61.40
2017-09-17T19:46:29.900Z,61.30
2017-09-17T19:48:56.024Z,61.20
2017-09-17T19:51:22.993Z,61.30
2017-09-17T19:53:49.191Z,61.30
2017-09-17T19:56:15.360Z,61.50
2017-09-17T19:58:41.538Z,61.20
2017-09-17T20:01:07.717Z,61.60
2017-09-17T20:03:33.992Z,62.00
2017-09-17T20:06:00.170Z,61.50
2017-09-17T20:08:26.376Z,61.30
2017-09-17T20:10:52.535Z,61.10
2017-09-17T20:13:18.694Z,61.60
2017-09-17T20:15:44.865Z,61.60
2017-09-17T20:18:11.147Z,62.50
2017-09-17T20:20:37.282Z,61.30
2017-09-17T20:23:03.412Z,61.60
2017-09-17T20:25:30.299Z,61.60
2017-09-17T20:27:56.444Z,61.60
2017-09-17T20:30:22.608Z,61.80
2017-09-17T20:32:48.776Z,62.20
2017-09-17T20:35:15.687Z,63.00
2017-09-17T20:37:41.900Z,62.20
2017-09-17T20:40:08.049Z,62.00
2017-09-17T20:42:34.176Z,61.30
2017-09-17T20:45:00.315Z,61.20
2017-09-17T20:47:26.505Z,61.20
2017-09-17T20:49:52.672Z,61.70
2017-09-17T20:52:19.827Z,61.70
2017-09-17T20:54:46.015Z,61.40
2017-09-17T20:57:12.216Z,61.20
2017-09-17T20:59:38.387Z,61.40
2017-09-17T21:02:04.574Z,61.30
2017-09-17T21:04:30.814Z,61.20
2017-09-17T21:06:57.044Z,61.90
2017-09-17T21:09:23.284Z,62.70
2017-09-17T21:11:49.519Z,62.40
2017-09-17T21:14:16.499Z,62.60
2017-09-17T21:16:42.899Z,62.60
2017-09-17T21:19:09.079Z,62.70
2017-09-17T21:21:35.261Z,61.90
2017-09-17T21:24:01.472Z,63.10
2017-09-17T21:26:27.741Z,63.20
2017-09-17T21:28:53.929Z,62.70
2017-09-17T21:31:20.146Z,62.50
2017-09-17T21:33:46.428Z,62.90
2017-09-17T21:36:12.609Z,62.90
2017-09-17T21:38:38.759Z,63.10
2017-09-17T21:41:04.908Z,62.50
2017-09-17T21:43:31.075Z,62.70
2017-09-17T21:45:57.246Z,63.60
2017-09-17T21:48:23.467Z,63.90
2017-09-17T21:50:49.644Z,62.80
2017-09-17T21:53:16.580Z,62.80
2017-09-17T21:55:42.748Z,62.80
2017-09-17T21:58:08.919Z,62.80
2017-09-17T22:00:35.088Z,62.80
2017-09-17T22:03:01.244Z,62.80
2017-09-17T22:05:27.426Z,62.70
2017-09-17T22:07:53.601Z,62.80
2017-09-17T22:10:19.817Z,62.80
2017-09-17T22:12:45.987Z,62.80
2017-09-17T22:15:12.225Z,62.80
2017-09-17T22:17:38.375Z,62.70
2017-09-17T22:20:04.581Z,63.00
2017-09-17T22:22:30.758Z,63.40
2017-09-17T22:24:57.108Z,63.40
2017-09-17T22:27:23.280Z,63.30
2017-09-17T22:29:49.502Z,63.70
2017-09-17T22:32:15.731Z,62.60
2017-09-17T22:34:41.932Z,62.40
2017-09-17T22:37:08.123Z,63.30
2017-09-17T22:39:34.284Z,63.80
2017-09-17T22:42:00.443Z,64.10
2017-09-17T22:44:26.670Z,64.10
2017-09-17T22:46:52.868Z,63.30
2017-09-17T22:49:19.211Z,63.90
2017-09-17T22:51:45.376Z,63.70
2017-09-17T22:54:12.258Z,64.10
2017-09-17T22:56:38.427Z,64.10
2017-09-17T22:59:04.571Z,64.70
2017-09-17T23:01:30.772Z,64.40
2017-09-17T23:03:56.951Z,64.40
2017-09-17T23:06:23.837Z,64.30
2017-09-17T23:08:50.028Z,63.80
2017-09-17T23:11:16.156Z,64.00
2017-09-17T23:13:42.353Z,63.70
2017-09-17T23:16:08.499Z,64.40
2017-09-17T23:18:34.669Z,64.90
2017-09-17T23:21:00.839Z,64.40
2017-09-17T23:23:27.179Z,64.60
2017-09-17T23:25:54.098Z,64.00
2017-09-17T23:28:20.265Z,64.00
2017-09-17T23:30:46.412Z,64.20
2017-09-17T23:33:12.556Z,64.40
2017-09-17T23:35:38.752Z,63.60
2017-09-17T23:38:05.642Z,63.40
2017-09-17T23:40:31.812Z,63.40
2017-09-17T23:42:57.935Z,63.40
2017-09-17T23:45:24.090Z,63.40
2017-09-17T23:47:50.229Z,63.10
2017-09-17T23:50:16.399Z,63.50
2017-09-17T23:52:42.566Z,63.30
2017-09-17T23:55:08.731Z,63.00
2017-09-17T23:57:34.888Z,62.90
